Plano, TX (75023)

6:13 AM CST on December 06, 2016 (GMT -0600)
Hunters Glen | | Change Station
Active Advisory: Dense Fog Advisory

Elev 679 ft 33.06 °N, 96.73 °W | Updated 14 seconds ago

Rain
Rain Mist
48.5 °F
Feels Like 48 °F
N
0.0
Wind Variable Wind from East

Today
High -- | Low -- °F
--% Chance of Precip.
Yesterday
High -- | Low -- °F
Precip. -- in
Pressure 29.84 in
Visibility 2.5 miles
Clouds Overcast 300 ft
Windchill 48 °F
Dew Point 48 °F
Humidity 98%
Rainfall 0.00 in
Snow Depth Not available.
7:16 AM 5:19 PM
Waxing Crescent, 41% visible
METAR KADS 061154Z 06005KT 2 1/2 RA BR OVC003 10/10 A2984
Pressure 29.84 in
Visibility 2.5 miles
Clouds Overcast 300 ft
Windchill 48 °F
Dew Point 48 °F
Humidity 98%
Rainfall 0.00 in
Snow Depth Not available.
7:16 AM 5:19 PM
Waxing Crescent, 41% visible
METAR KADS 061154Z 06005KT 2 1/2 RA BR OVC003 10/10 A2984

10-Day Weather Forecast

Almanac

Astronomy

Dec. 06, 2016 Rise Set
Actual Time
Civil Twilight
Nautical Twilight
Astronomical Twilight
Moon
Length of Visible Light
Length of Day
Tomorrow will be .
, % of the Moon is Illuminated

Today's Extremes

State Highs State Lows

Community

WunderPhotos

Upload Photos

1,955,936 photos uploaded!

WunderBlog® & News

Nearby

Air Quality

  Air Quality AQ Index Pollutant
Not available.

Snow Depth

Station Depth Elevation

Earthquake Activity

City Distance Mag. Time & Date
Minimum magnitude displayed is 2.5.

Coastal Water Temperatures

Place Temperature

Stations

Nearby Weather Stations

Station Location Temp. Windchill Dew Point Humidity Wind Precip. Elev Updated Type
                   

Watches & Warnings

Dense Fog Advisory
Issued: 2:53 AM CST Dec. 6, 2016 – National Weather Service

... Dense fog advisory remains in effect until 8 am CST this
morning...

* visibility... half a mile with occasionally a quarter of a mile
or less.

* Location... most of the Interstate 20... Interstate 35 and
Interstate 45 corridors.

* Timing... through 8 am.

* Impacts... visibility restrictions may produce hazardous
driving conditions during early morning commutes.

Precautionary/preparedness actions...

A dense fog advisory means visibilities will be reduced to less
than one quarter mile. If driving... slow down... use your low-beam
headlights... and leave plenty of distance between you and the
vehicle ahead of you.